Time;durP1;ratioP1;P1;durP2;ratioP2;P2;SDS_P1;SDS_P2;PMS_P1;PMS_P2;Temp;Humidity;BMP_temperature;BMP_pressure;BME280_temperature;BME280_humidity;BME280_pressure;Samples;Min_cycle;Max_cycle;Signal;HPM_P1;HPM_P2
2021/07/26 00:00:56;;;;;;;6.93;5.85;;;;;;;;;;6302597;22;20078;-43
2021/07/26 00:03:22;;;;;;;11.57;6.60;;;;;;;;;;6303133;22;19995;-43
2021/07/26 00:05:54;;;;;;;18.55;6.60;;;;;;;;;;6302742;22;19999;-44
2021/07/26 00:08:20;;;;;;;8.05;6.43;;;;;;;;;;6303249;22;20002;-42
2021/07/26 00:10:45;;;;;;;14.55;6.68;;;;;;;;;;6302651;22;19995;-43
2021/07/26 00:13:31;;;;;;;9.90;6.20;;;;;;;;;;6303223;22;20006;-43
2021/07/26 00:15:56;;;;;;;10.63;5.78;;;;;;;;;;6301828;22;20003;-42
2021/07/26 00:18:22;;;;;;;12.27;5.68;;;;;;;;;;6302646;22;20260;-42
2021/07/26 00:20:47;;;;;;;12.40;5.13;;;;;;;;;;6302777;22;20011;-43
2021/07/26 00:23:12;;;;;;;11.68;5.75;;;;;;;;;;6302733;22;19991;-41
2021/07/26 00:25:38;;;;;;;11.25;5.80;;;;;;;;;;6303064;22;19997;-42
2021/07/26 00:28:03;;;;;;;10.57;7.15;;;;;;;;;;6302271;22;20437;-41
2021/07/26 00:30:28;;;;;;;10.50;6.13;;;;;;;;;;6302797;22;20003;-41
2021/07/26 00:32:54;;;;;;;9.43;4.90;;;;;;;;;;6302318;22;20094;-41
2021/07/26 00:35:19;;;;;;;8.20;5.53;;;;;;;;;;6303136;22;20332;-41
2021/07/26 00:37:44;;;;;;;7.45;5.10;;;;;;;;;;6302262;22;20082;-41
2021/07/26 00:40:10;;;;;;;7.75;4.90;;;;;;;;;;6302612;22;20006;-41
2021/07/26 00:42:36;;;;;;;9.00;5.35;;;;;;;;;;6302658;22;20215;-43
2021/07/26 00:45:01;;;;;;;16.35;7.07;;;;;;;;;;6302573;22;20067;-42
2021/07/26 00:47:27;;;;;;;18.83;6.57;;;;;;;;;;6303069;22;20439;-42
2021/07/26 00:49:52;;;;;;;11.27;6.63;;;;;;;;;;6301794;22;20068;-42
2021/07/26 00:52:17;;;;;;;11.60;7.70;;;;;;;;;;6302450;22;20030;-42
2021/07/26 00:54:43;;;;;;;10.00;6.80;;;;;;;;;;6302720;22;20009;-42
2021/07/26 00:57:08;;;;;;;10.85;6.32;;;;;;;;;;6302744;22;20464;-42
2021/07/26 00:59:34;;;;;;;8.18;5.07;;;;;;;;;;6302614;22;20026;-42
2021/07/26 01:01:59;;;;;;;27.90;8.05;;;;;;;;;;6302089;22;20259;-42
2021/07/26 01:04:25;;;;;;;15.27;7.00;;;;;;;;;;6302397;22;20025;-44
2021/07/26 01:06:50;;;;;;;10.15;5.93;;;;;;;;;;6302080;22;19995;-42
2021/07/26 01:09:16;;;;;;;10.95;7.22;;;;;;;;;;6302171;22;20002;-42
2021/07/26 01:11:42;;;;;;;10.05;6.53;;;;;;;;;;6302455;22;19999;-43
2021/07/26 01:14:07;;;;;;;13.85;6.38;;;;;;;;;;6302479;22;20325;-42
2021/07/26 01:16:32;;;;;;;9.85;5.43;;;;;;;;;;6302170;22;20374;-42
2021/07/26 01:19:01;;;;;;;9.18;6.50;;;;;;;;;;6302085;22;20007;-41
2021/07/26 01:21:26;;;;;;;6.10;5.13;;;;;;;;;;6302142;22;20007;-42
2021/07/26 01:23:52;;;;;;;13.88;6.65;;;;;;;;;;6302294;22;20006;-42
2021/07/26 01:26:18;;;;;;;11.80;5.47;;;;;;;;;;6302181;22;19998;-41
2021/07/26 01:28:45;;;;;;;13.70;6.18;;;;;;;;;;6301823;22;20754;-41
2021/07/26 01:31:11;;;;;;;8.18;6.55;;;;;;;;;;6302309;22;19995;-42
2021/07/26 01:33:36;;;;;;;19.35;8.02;;;;;;;;;;6302027;22;20060;-42
2021/07/26 01:36:02;;;;;;;6.18;5.03;;;;;;;;;;6302351;22;20056;-42
2021/07/26 01:38:28;;;;;;;12.52;5.85;;;;;;;;;;6302157;22;20547;-42
2021/07/26 01:40:54;;;;;;;8.48;4.85;;;;;;;;;;6301991;22;20068;-41
2021/07/26 01:43:20;;;;;;;6.93;6.07;;;;;;;;;;6302092;22;20011;-42
2021/07/26 01:45:52;;;;;;;9.38;5.70;;;;;;;;;;6302028;22;20324;-43
2021/07/26 01:48:20;;;;;;;8.38;5.80;;;;;;;;;;6301838;22;20457;-42
2021/07/26 01:51:02;;;;;;;8.82;6.60;;;;;;;;;;6302120;22;19999;-32
2021/07/26 01:53:28;;;;;;;13.38;6.25;;;;;;;;;;6302417;22;19999;-32
2021/07/26 01:55:53;;;;;;;7.88;6.65;;;;;;;;;;6301948;22;20003;-33
2021/07/26 01:58:19;;;;;;;20.50;7.55;;;;;;;;;;6301706;22;20027;-32
2021/07/26 02:00:44;;;;;;;13.85;6.68;;;;;;;;;;6301896;22;20038;-32
2021/07/26 02:03:09;;;;;;;9.45;7.72;;;;;;;;;;6301628;22;20273;-32
2021/07/26 02:05:35;;;;;;;6.85;5.55;;;;;;;;;;6302084;22;19995;-32
2021/07/26 02:08:00;;;;;;;6.18;5.57;;;;;;;;;;6302053;22;20046;-32
2021/07/26 02:10:25;;;;;;;16.38;7.97;;;;;;;;;;6301449;22;20360;-42
2021/07/26 02:12:50;;;;;;;17.92;6.88;;;;;;;;;;6301806;22;20023;-41
2021/07/26 02:15:16;;;;;;;12.25;7.13;;;;;;;;;;6301855;22;20003;-42
2021/07/26 02:17:41;;;;;;;8.55;5.82;;;;;;;;;;6301767;22;20007;-42
2021/07/26 02:20:07;;;;;;;11.35;5.93;;;;;;;;;;6301768;22;20010;-42
2021/07/26 02:22:32;;;;;;;11.85;5.00;;;;;;;;;;6303532;22;20061;-42
2021/07/26 02:24:57;;;;;;;7.47;5.45;;;;;;;;;;6303963;22;20001;-42
2021/07/26 02:27:23;;;;;;;9.90;6.50;;;;;;;;;;6303736;22;20006;-41
2021/07/26 02:29:48;;;;;;;8.00;5.70;;;;;;;;;;6303637;22;19999;-42
2021/07/26 02:32:13;;;;;;;11.07;5.43;;;;;;;;;;6303713;22;20064;-42
2021/07/26 02:34:39;;;;;;;20.33;5.82;;;;;;;;;;6304032;22;20304;-41
2021/07/26 02:37:04;;;;;;;15.27;6.95;;;;;;;;;;6301835;22;20494;-41
2021/07/26 02:39:29;;;;;;;10.57;7.20;;;;;;;;;;6304053;22;20053;-41
2021/07/26 02:41:55;;;;;;;12.02;6.15;;;;;;;;;;6303836;22;19999;-42
2021/07/26 02:44:20;;;;;;;15.27;7.78;;;;;;;;;;6304031;22;20029;-41
2021/07/26 02:46:45;;;;;;;13.30;6.30;;;;;;;;;;6303788;22;20015;-42
2021/07/26 02:49:10;;;;;;;11.63;5.03;;;;;;;;;;6303655;22;20424;-42
2021/07/26 02:51:36;;;;;;;22.25;5.57;;;;;;;;;;6304117;22;20078;-42
2021/07/26 02:54:01;;;;;;;13.88;5.55;;;;;;;;;;6303976;22;20006;-42
2021/07/26 02:56:26;;;;;;;9.25;4.60;;;;;;;;;;6303376;22;20413;-42
2021/07/26 02:58:53;;;;;;;18.08;6.47;;;;;;;;;;6304000;22;20053;-42
2021/07/26 03:01:18;;;;;;;8.30;6.05;;;;;;;;;;6303117;22;19996;-42
2021/07/26 03:03:44;;;;;;;10.48;5.97;;;;;;;;;;6303449;22;20070;-42
2021/07/26 03:06:13;;;;;;;14.40;6.15;;;;;;;;;;6303748;22;20074;-42
2021/07/26 03:08:38;;;;;;;7.90;6.25;;;;;;;;;;6303923;22;20003;-42
2021/07/26 03:11:08;;;;;;;9.63;6.30;;;;;;;;;;6303673;22;20083;-42
2021/07/26 03:13:34;;;;;;;6.93;5.95;;;;;;;;;;6303938;22;20003;-42
2021/07/26 03:16:03;;;;;;;14.63;6.00;;;;;;;;;;6303617;22;19995;-42
2021/07/26 03:18:28;;;;;;;7.63;5.70;;;;;;;;;;6303384;22;20518;-41
2021/07/26 03:20:53;;;;;;;21.00;6.93;;;;;;;;;;6303381;22;20007;-42
2021/07/26 03:23:19;;;;;;;11.75;6.68;;;;;;;;;;6303650;22;20014;-42
2021/07/26 03:25:44;;;;;;;16.70;6.10;;;;;;;;;;6303415;22;19995;-42
2021/07/26 03:28:09;;;;;;;8.90;6.38;;;;;;;;;;6303084;22;19995;-42
2021/07/26 03:30:35;;;;;;;8.23;5.15;;;;;;;;;;6302941;22;20061;-41
2021/07/26 03:33:00;;;;;;;10.18;5.15;;;;;;;;;;6302133;22;20068;-42
2021/07/26 03:35:25;;;;;;;9.07;4.70;;;;;;;;;;6303601;22;19995;-41
2021/07/26 03:37:51;;;;;;;21.90;6.72;;;;;;;;;;6303228;22;20458;-42
2021/07/26 03:40:17;;;;;;;8.77;5.30;;;;;;;;;;6303432;22;20033;-42
2021/07/26 03:42:43;;;;;;;10.27;5.50;;;;;;;;;;6302946;22;20344;-42
2021/07/26 03:45:09;;;;;;;8.60;4.95;;;;;;;;;;6303067;22;19991;-42
2021/07/26 03:47:35;;;;;;;8.52;4.40;;;;;;;;;;6303399;22;20052;-42
2021/07/26 03:50:00;;;;;;;8.98;4.63;;;;;;;;;;6303285;22;20003;-42
2021/07/26 03:52:25;;;;;;;7.30;5.18;;;;;;;;;;6303446;22;20452;-42
2021/07/26 03:54:54;;;;;;;16.63;5.55;;;;;;;;;;6302976;22;20417;-42
2021/07/26 03:57:19;;;;;;;7.13;4.97;;;;;;;;;;6303274;22;20003;-43
2021/07/26 03:59:45;;;;;;;8.45;5.63;;;;;;;;;;6302775;22;20098;-43
2021/07/26 04:02:10;;;;;;;6.88;5.72;;;;;;;;;;6302695;22;19987;-42
2021/07/26 04:04:35;;;;;;;11.15;6.05;;;;;;;;;;6303120;22;19995;-41
2021/07/26 04:07:04;;;;;;;4.75;4.18;;;;;;;;;;6303129;22;20003;-42
2021/07/26 04:09:37;;;;;;;6.60;5.13;;;;;;;;;;6302890;22;20496;-41
2021/07/26 04:12:06;;;;;;;10.55;7.05;;;;;;;;;;6302715;22;20485;-42
2021/07/26 04:14:36;;;;;;;13.60;8.02;;;;;;;;;;6302897;22;19995;-42
2021/07/26 04:17:01;;;;;;;10.98;7.60;;;;;;;;;;6302838;22;20039;-42
2021/07/26 04:19:26;;;;;;;15.55;7.78;;;;;;;;;;6302933;22;19999;-42
2021/07/26 04:21:55;;;;;;;7.05;5.85;;;;;;;;;;6302171;22;20044;-42
2021/07/26 04:24:20;;;;;;;11.93;6.47;;;;;;;;;;6303220;22;20006;-41
2021/07/26 04:26:46;;;;;;;10.68;6.93;;;;;;;;;;6302433;22;20181;-42
2021/07/26 04:29:11;;;;;;;8.60;6.65;;;;;;;;;;6302535;22;20003;-42
2021/07/26 04:31:36;;;;;;;7.00;4.95;;;;;;;;;;6302763;22;20010;-42
2021/07/26 04:34:01;;;;;;;8.63;7.10;;;;;;;;;;6302352;22;20466;-42
2021/07/26 04:36:27;;;;;;;10.98;7.03;;;;;;;;;;6302737;22;20023;-42
2021/07/26 04:38:52;;;;;;;7.88;5.72;;;;;;;;;;6302767;22;20043;-42
2021/07/26 04:41:17;;;;;;;12.00;6.28;;;;;;;;;;6302671;22;20082;-42
2021/07/26 04:43:43;;;;;;;11.65;5.20;;;;;;;;;;6302251;22;20042;-41
2021/07/26 04:46:09;;;;;;;8.00;5.15;;;;;;;;;;6302319;22;20382;-41
2021/07/26 04:48:34;;;;;;;10.40;4.63;;;;;;;;;;6302506;22;20066;-42
2021/07/26 04:51:00;;;;;;;7.07;4.75;;;;;;;;;;6302723;22;20037;-42
2021/07/26 04:53:25;;;;;;;8.98;6.50;;;;;;;;;;6302712;22;19996;-42
2021/07/26 04:55:50;;;;;;;20.05;7.18;;;;;;;;;;6302287;22;20060;-42
2021/07/26 04:58:16;;;;;;;18.90;11.35;;;;;;;;;;6302337;22;20005;-41
2021/07/26 05:00:41;;;;;;;20.65;11.65;;;;;;;;;;6302627;22;20011;-43
2021/07/26 05:03:09;;;;;;;25.10;10.52;;;;;;;;;;6302121;22;20475;-42
2021/07/26 05:05:35;;;;;;;14.30;10.02;;;;;;;;;;6302593;22;19995;-42
2021/07/26 05:08:01;;;;;;;12.90;9.68;;;;;;;;;;6302136;22;20280;-42
2021/07/26 05:10:26;;;;;;;10.15;6.47;;;;;;;;;;6302102;22;20533;-42
2021/07/26 05:12:51;;;;;;;32.65;10.00;;;;;;;;;;6302227;22;20002;-43
2021/07/26 05:15:16;;;;;;;17.95;8.25;;;;;;;;;;6301891;22;20317;-43
2021/07/26 05:17:42;;;;;;;9.52;6.40;;;;;;;;;;6302210;22;20084;-43
2021/07/26 05:20:07;;;;;;;10.05;7.05;;;;;;;;;;6302295;22;20007;-43
2021/07/26 05:22:32;;;;;;;10.77;6.28;;;;;;;;;;6301770;22;20305;-43
2021/07/26 05:24:58;;;;;;;8.55;6.55;;;;;;;;;;6302694;22;19991;-44
2021/07/26 05:27:28;;;;;;;12.75;8.20;;;;;;;;;;6302370;22;19995;-44
2021/07/26 05:29:53;;;;;;;19.63;8.10;;;;;;;;;;6301792;22;20007;-44
2021/07/26 05:32:18;;;;;;;9.85;6.57;;;;;;;;;;6302195;22;20062;-44
2021/07/26 05:34:46;;;;;;;12.65;7.32;;;;;;;;;;6302248;22;20003;-44
2021/07/26 05:37:11;;;;;;;9.63;7.88;;;;;;;;;;6302403;22;19995;-44
2021/07/26 05:39:36;;;;;;;13.55;8.77;;;;;;;;;;6302297;22;20093;-43
2021/07/26 05:42:02;;;;;;;15.40;7.93;;;;;;;;;;6302011;22;20593;-43
2021/07/26 05:44:28;;;;;;;9.00;8.15;;;;;;;;;;6301514;22;20065;-44
2021/07/26 05:46:53;;;;;;;14.38;8.30;;;;;;;;;;6301457;22;20467;-43
2021/07/26 05:49:19;;;;;;;19.70;8.15;;;;;;;;;;6301921;22;19995;-44
2021/07/26 05:51:44;;;;;;;9.50;5.88;;;;;;;;;;6302191;22;20000;-44
2021/07/26 05:54:09;;;;;;;12.90;6.13;;;;;;;;;;6302278;22;20003;-43
2021/07/26 05:56:40;;;;;;;11.15;5.60;;;;;;;;;;6301677;22;20038;-44
2021/07/26 05:59:06;;;;;;;14.52;6.68;;;;;;;;;;6302225;22;20014;-43
2021/07/26 06:01:49;;;;;;;8.45;5.90;;;;;;;;;;6301346;22;19999;-44
2021/07/26 06:04:18;;;;;;;21.17;11.10;;;;;;;;;;6301812;22;19995;-44
2021/07/26 06:06:44;;;;;;;16.00;7.13;;;;;;;;;;6301840;22;20432;-44
2021/07/26 06:09:10;;;;;;;20.95;7.53;;;;;;;;;;6301881;22;19996;-43
2021/07/26 06:11:36;;;;;;;11.30;8.65;;;;;;;;;;6301922;22;20127;-44
2021/07/26 06:14:02;;;;;;;30.92;25.02;;;;;;;;;;6301162;22;20010;-44
2021/07/26 06:16:27;;;;;;;33.28;25.30;;;;;;;;;;6302265;22;20007;-44
2021/07/26 06:18:52;;;;;;;20.80;12.57;;;;;;;;;;6301621;22;20019;-44
2021/07/26 06:21:17;;;;;;;20.73;11.40;;;;;;;;;;6301604;22;20439;-43
2021/07/26 06:23:43;;;;;;;14.10;12.70;;;;;;;;;;6301719;22;20074;-43
2021/07/26 06:26:09;;;;;;;19.88;11.52;;;;;;;;;;6301937;22;20077;-43
2021/07/26 06:28:34;;;;;;;14.20;9.15;;;;;;;;;;6302001;22;20413;-44
2021/07/26 06:31:01;;;;;;;21.45;10.55;;;;;;;;;;6301290;22;20072;-44
2021/07/26 06:33:26;;;;;;;13.05;11.77;;;;;;;;;;6301179;22;20466;-44
2021/07/26 06:35:52;;;;;;;16.40;6.90;;;;;;;;;;6301777;22;19995;-44
2021/07/26 06:38:17;;;;;;;16.38;6.38;;;;;;;;;;6301524;22;20617;-45
2021/07/26 06:40:43;;;;;;;11.85;5.28;;;;;;;;;;6300703;22;20042;-44
2021/07/26 06:43:08;;;;;;;10.80;7.45;;;;;;;;;;6299795;22;20014;-43
2021/07/26 06:45:33;;;;;;;10.10;6.95;;;;;;;;;;6300660;22;20324;-43
2021/07/26 06:47:59;;;;;;;14.13;8.30;;;;;;;;;;6301615;22;19998;-43
2021/07/26 06:50:24;;;;;;;14.07;10.30;;;;;;;;;;6299612;22;20385;-44
2021/07/26 06:52:49;;;;;;;19.30;9.30;;;;;;;;;;6299599;22;20711;-43
2021/07/26 06:55:15;;;;;;;13.05;7.15;;;;;;;;;;6299850;22;20007;-45
2021/07/26 06:57:40;;;;;;;6.95;6.15;;;;;;;;;;6299719;22;20072;-44
2021/07/26 07:00:06;;;;;;;9.35;5.93;;;;;;;;;;6299587;22;20425;-43
2021/07/26 07:02:31;;;;;;;11.25;6.72;;;;;;;;;;6300523;22;20023;-43
2021/07/26 07:04:57;;;;;;;9.27;6.18;;;;;;;;;;6300112;22;20490;-43
2021/07/26 07:07:22;;;;;;;6.25;4.15;;;;;;;;;;6302249;22;19992;-43
2021/07/26 07:09:47;;;;;;;7.22;4.43;;;;;;;;;;6303620;22;20071;-43
2021/07/26 07:12:18;;;;;;;5.25;3.72;;;;;;;;;;6303067;22;20003;-43
2021/07/26 07:14:43;;;;;;;14.73;5.25;;;;;;;;;;6303074;22;19999;-43
2021/07/26 07:17:09;;;;;;;8.40;4.93;;;;;;;;;;6302898;22;20007;-43
2021/07/26 07:19:37;;;;;;;9.63;4.50;;;;;;;;;;6303431;22;20064;-44
2021/07/26 07:22:02;;;;;;;11.57;7.03;;;;;;;;;;6302989;22;20025;-43
2021/07/26 07:24:27;;;;;;;8.80;5.50;;;;;;;;;;6302732;22;20000;-33
2021/07/26 07:26:53;;;;;;;11.43;6.68;;;;;;;;;;6302046;22;20007;-34
2021/07/26 07:29:18;;;;;;;8.45;4.93;;;;;;;;;;6301633;22;20508;-34
2021/07/26 07:31:44;;;;;;;5.07;3.30;;;;;;;;;;6302142;22;20117;-34
2021/07/26 07:34:11;;;;;;;15.90;4.68;;;;;;;;;;6302140;22;20025;-33
2021/07/26 07:36:36;;;;;;;5.93;3.95;;;;;;;;;;6302361;22;20078;-33
2021/07/26 07:39:02;;;;;;;21.83;5.78;;;;;;;;;;6301840;22;20065;-43
2021/07/26 07:41:28;;;;;;;8.30;4.80;;;;;;;;;;6302117;22;20008;-43
2021/07/26 07:43:53;;;;;;;9.07;4.63;;;;;;;;;;6302019;22;20049;-43
2021/07/26 07:46:19;;;;;;;6.47;5.47;;;;;;;;;;6302430;22;19995;-43
2021/07/26 07:48:45;;;;;;;4.10;3.55;;;;;;;;;;6302177;22;19999;-43
2021/07/26 07:51:11;;;;;;;5.22;3.70;;;;;;;;;;6302349;22;20005;-44
2021/07/26 07:53:36;;;;;;;6.13;3.97;;;;;;;;;;6302585;22;20539;-43
2021/07/26 07:56:02;;;;;;;6.22;4.18;;;;;;;;;;6301973;22;20408;-43
2021/07/26 07:58:28;;;;;;;6.50;3.78;;;;;;;;;;6302097;22;20108;-43
2021/07/26 08:00:56;;;;;;;8.25;4.50;;;;;;;;;;6301607;22;19999;-44
2021/07/26 08:03:21;;;;;;;15.70;4.57;;;;;;;;;;6301633;22;20487;-44
2021/07/26 08:05:47;;;;;;;9.10;2.78;;;;;;;;;;6301955;22;19991;-43
2021/07/26 08:08:13;;;;;;;12.77;4.22;;;;;;;;;;6302055;22;20396;-45
2021/07/26 08:10:38;;;;;;;8.38;4.20;;;;;;;;;;6302625;22;20053;-43
2021/07/26 08:13:03;;;;;;;5.68;4.25;;;;;;;;;;6301857;22;20352;-43
2021/07/26 08:15:29;;;;;;;5.20;2.88;;;;;;;;;;6301790;22;20014;-43
2021/07/26 08:17:54;;;;;;;17.95;5.95;;;;;;;;;;6301502;22;20352;-44
2021/07/26 08:20:19;;;;;;;3.60;2.55;;;;;;;;;;6301384;22;19995;-43
2021/07/26 08:22:46;;;;;;;9.52;3.65;;;;;;;;;;6302041;22;20000;-43
2021/07/26 08:25:11;;;;;;;4.90;3.30;;;;;;;;;;6301840;22;20001;-43
2021/07/26 08:27:46;;;;;;;6.30;3.80;;;;;;;;;;6301519;22;20003;-43
2021/07/26 08:30:11;;;;;;;9.70;2.97;;;;;;;;;;6301688;22;20472;-43
2021/07/26 08:32:37;;;;;;;5.38;3.75;;;;;;;;;;6301542;22;20082;-44
2021/07/26 08:35:02;;;;;;;3.83;3.40;;;;;;;;;;6301688;22;20015;-44
2021/07/26 08:37:31;;;;;;;3.30;2.45;;;;;;;;;;6301727;22;20053;-43
2021/07/26 08:40:00;;;;;;;4.82;3.33;;;;;;;;;;6301445;22;20177;-43
2021/07/26 08:42:26;;;;;;;4.38;2.90;;;;;;;;;;6301638;22;20413;-43
2021/07/26 08:44:51;;;;;;;4.80;3.42;;;;;;;;;;6302175;22;20039;-43
2021/07/26 08:47:17;;;;;;;5.25;2.88;;;;;;;;;;6302444;22;20314;-43
2021/07/26 08:49:42;;;;;;;4.25;2.97;;;;;;;;;;6302063;22;20394;-43
2021/07/26 08:52:08;;;;;;;3.47;2.47;;;;;;;;;;6301697;22;19995;-43
2021/07/26 08:54:34;;;;;;;5.93;4.50;;;;;;;;;;6299482;22;20003;-43
2021/07/26 08:57:01;;;;;;;4.00;3.22;;;;;;;;;;6301120;22;19995;-43
2021/07/26 08:59:26;;;;;;;10.02;4.53;;;;;;;;;;6301305;22;19999;-43
2021/07/26 09:01:53;;;;;;;6.18;4.10;;;;;;;;;;6301420;22;20055;-44
2021/07/26 09:04:18;;;;;;;6.60;3.25;;;;;;;;;;6301747;22;19991;-44
2021/07/26 09:06:44;;;;;;;14.20;6.47;;;;;;;;;;6301603;22;19995;-44
2021/07/26 09:09:10;;;;;;;9.73;5.40;;;;;;;;;;6301377;22;19992;-43
2021/07/26 09:11:45;;;;;;;10.23;4.07;;;;;;;;;;6301573;22;20466;-44
2021/07/26 09:14:11;;;;;;;11.07;4.38;;;;;;;;;;6300581;22;20544;-45
2021/07/26 09:16:36;;;;;;;8.32;4.65;;;;;;;;;;6301417;22;20034;-43
2021/07/26 09:19:02;;;;;;;5.72;3.35;;;;;;;;;;6301269;22;20392;-44
2021/07/26 09:21:46;;;;;;;8.13;3.20;;;;;;;;;;6300752;22;20376;-43
2021/07/26 09:24:11;;;;;;;11.88;4.00;;;;;;;;;;6300847;22;20005;-44
2021/07/26 09:26:37;;;;;;;10.38;3.42;;;;;;;;;;6301608;22;20066;-44
2021/07/26 09:29:22;;;;;;;5.38;2.53;;;;;;;;;;6301300;22;20375;-43
2021/07/26 09:31:57;;;;;;;8.32;3.58;;;;;;;;;;6300446;22;19999;-43
2021/07/26 09:34:23;;;;;;;9.00;4.75;;;;;;;;;;6301070;22;20003;-43
2021/07/26 09:36:49;;;;;;;7.40;3.67;;;;;;;;;;6301453;22;20038;-44
2021/07/26 09:39:23;;;;;;;7.35;3.47;;;;;;;;;;6301256;22;20405;-44
2021/07/26 09:41:48;;;;;;;13.88;4.05;;;;;;;;;;6300660;22;20014;-43
2021/07/26 09:44:14;;;;;;;12.80;4.00;;;;;;;;;;6300079;22;20415;-44
2021/07/26 09:46:39;;;;;;;4.07;3.45;;;;;;;;;;6300383;22;20321;-44
2021/07/26 09:49:09;;;;;;;6.07;2.65;;;;;;;;;;6300092;22;20075;-43
2021/07/26 09:51:34;;;;;;;5.32;3.38;;;;;;;;;;6300242;22;20046;-43
2021/07/26 09:54:00;;;;;;;7.35;3.92;;;;;;;;;;6299903;22;20067;-43
2021/07/26 09:56:28;;;;;;;7.82;5.50;;;;;;;;;;6299880;22;20007;-44
2021/07/26 09:58:54;;;;;;;9.68;4.80;;;;;;;;;;6300060;22;20003;-44
2021/07/26 10:01:20;;;;;;;15.75;7.15;;;;;;;;;;6300653;22;20074;-43
2021/07/26 10:03:46;;;;;;;10.02;7.75;;;;;;;;;;6301752;22;20268;-42
2021/07/26 10:06:13;;;;;;;10.70;4.88;;;;;;;;;;6302146;22;20004;-43
2021/07/26 10:08:39;;;;;;;5.53;4.07;;;;;;;;;;6301833;22;20705;-43
2021/07/26 10:11:04;;;;;;;4.55;3.13;;;;;;;;;;6301440;22;20006;-43
2021/07/26 10:13:30;;;;;;;6.68;4.63;;;;;;;;;;6301395;22;19999;-43
2021/07/26 10:15:55;;;;;;;11.43;3.60;;;;;;;;;;6301504;22;20006;-43
2021/07/26 10:18:21;;;;;;;11.07;4.22;;;;;;;;;;6301589;22;20011;-43
2021/07/26 10:20:58;;;;;;;14.05;4.95;;;;;;;;;;6301599;22;20025;-42
2021/07/26 10:23:42;;;;;;;8.93;3.85;;;;;;;;;;6301470;22;19995;-41
2021/07/26 10:26:15;;;;;;;6.75;3.00;;;;;;;;;;6301214;22;20562;-34
2021/07/26 10:28:51;;;;;;;7.60;4.05;;;;;;;;;;6301280;22;20064;-34
2021/07/26 10:31:32;;;;;;;6.75;3.13;;;;;;;;;;6301273;22;20006;-34
2021/07/26 10:34:04;;;;;;;6.30;4.72;;;;;;;;;;6301099;22;20013;-34
2021/07/26 10:36:44;;;;;;;8.35;3.60;;;;;;;;;;6301893;22;20076;-34
2021/07/26 10:39:13;;;;;;;16.48;4.47;;;;;;;;;;6301673;22;20055;-34
2021/07/26 10:41:44;;;;;;;7.03;3.42;;;;;;;;;;6300867;22;20003;-34
2021/07/26 10:44:30;;;;;;;7.30;4.18;;;;;;;;;;6302729;22;20079;-34
2021/07/26 10:47:06;;;;;;;6.50;3.63;;;;;;;;;;6302186;22;20051;-34
2021/07/26 10:49:35;;;;;;;5.20;3.22;;;;;;;;;;6302332;22;20027;-33
2021/07/26 10:52:00;;;;;;;17.50;5.20;;;;;;;;;;6301419;22;20006;-33
2021/07/26 10:54:32;;;;;;;17.48;6.05;;;;;;;;;;6301616;22;20003;-33
2021/07/26 10:57:00;;;;;;;12.57;4.95;;;;;;;;;;6302295;22;20069;-33
2021/07/26 10:59:26;;;;;;;8.35;4.30;;;;;;;;;;6302688;22;20002;-33
2021/07/26 11:02:03;;;;;;;9.85;3.90;;;;;;;;;;6302716;22;20328;-33
2021/07/26 11:04:29;;;;;;;13.13;4.50;;;;;;;;;;6302620;22;20068;-33
2021/07/26 11:06:55;;;;;;;7.82;4.60;;;;;;;;;;6302776;22;20332;-33
2021/07/26 11:09:32;;;;;;;7.85;4.03;;;;;;;;;;6302520;22;19998;-33
2021/07/26 11:11:58;;;;;;;13.38;6.05;;;;;;;;;;6302975;22;20026;-33
2021/07/26 11:14:23;;;;;;;7.30;4.40;;;;;;;;;;6302808;22;20414;-33
2021/07/26 11:16:48;;;;;;;6.13;3.45;;;;;;;;;;6302549;22;20598;-34
2021/07/26 11:19:33;;;;;;;12.25;5.57;;;;;;;;;;6302830;22;20003;-34
2021/07/26 11:21:58;;;;;;;7.55;4.10;;;;;;;;;;6302591;22;20013;-34
2021/07/26 11:24:39;;;;;;;9.60;5.57;;;;;;;;;;6302412;22;20023;-34
2021/07/26 11:27:04;;;;;;;;;;;;;;;;;;6302949;22;20074;-38
2021/07/26 11:29:30;;;;;;;4.17;3.13;;;;;;;;;;6303116;22;19956;-33
2021/07/26 11:31:58;;;;;;;14.02;6.70;;;;;;;;;;6302729;22;20107;-34
2021/07/26 11:34:27;;;;;;;14.30;8.77;;;;;;;;;;6302433;22;20003;-34
2021/07/26 11:37:07;;;;;;;9.65;4.20;;;;;;;;;;6302199;22;20030;-34
2021/07/26 11:39:52;;;;;;;11.35;3.53;;;;;;;;;;6302025;22;20036;-34
2021/07/26 11:42:19;;;;;;;13.65;2.65;;;;;;;;;;6302598;22;20006;-34
2021/07/26 11:44:48;;;;;;;18.25;5.88;;;;;;;;;;6302114;22;19999;-34
2021/07/26 11:47:14;;;;;;;24.02;6.13;;;;;;;;;;6302026;22;20420;-34
2021/07/26 11:49:49;;;;;;;13.07;5.38;;;;;;;;;;6302697;22;19996;-33
2021/07/26 11:52:15;;;;;;;7.82;4.22;;;;;;;;;;6302562;22;20074;-33
2021/07/26 11:54:40;;;;;;;12.73;5.15;;;;;;;;;;6302137;22;20396;-34
2021/07/26 11:57:09;;;;;;;14.95;5.40;;;;;;;;;;6302458;22;20336;-35
2021/07/26 11:59:35;;;;;;;9.02;4.68;;;;;;;;;;6302851;22;19999;-35
2021/07/26 12:02:14;;;;;;;5.40;3.38;;;;;;;;;;6302950;22;20270;-35
2021/07/26 12:04:44;;;;;;;5.97;3.65;;;;;;;;;;6302598;22;20785;-34
2021/07/26 12:07:09;;;;;;;7.82;4.70;;;;;;;;;;6302733;22;20084;-34
2021/07/26 12:09:47;;;;;;;5.72;3.08;;;;;;;;;;6302109;22;20400;-34
2021/07/26 12:12:17;;;;;;;6.78;4.35;;;;;;;;;;6301907;22;20003;-34
2021/07/26 12:14:43;;;;;;;7.73;3.63;;;;;;;;;;6301984;22;20026;-34
2021/07/26 12:17:24;;;;;;;7.47;4.63;;;;;;;;;;6301417;22;20012;-34
2021/07/26 12:20:06;;;;;;;11.32;4.07;;;;;;;;;;6301280;22;20147;-34
2021/07/26 12:22:49;;;;;;;17.50;5.47;;;;;;;;;;6301645;22;20383;-34
2021/07/26 12:25:18;;;;;;;17.30;7.05;;;;;;;;;;6301815;22;20439;-34
2021/07/26 12:27:56;;;;;;;5.40;4.10;;;;;;;;;;6301552;22;20003;-34
2021/07/26 12:30:32;;;;;;;8.50;4.60;;;;;;;;;;6301873;22;20488;-34
2021/07/26 12:33:00;;;;;;;4.75;3.50;;;;;;;;;;6301571;22;20441;-35
2021/07/26 12:35:28;;;;;;;9.88;4.97;;;;;;;;;;6301841;22;20000;-34
2021/07/26 12:38:28;;;;;;;17.25;6.10;;;;;;;;;;6301986;22;20168;-34
2021/07/26 12:41:10;;;;;;;4.15;3.15;;;;;;;;;;6206422;23;20089;-35
2021/07/26 12:43:37;;;;;;;13.23;5.55;;;;;;;;;;6292295;22;20010;-35
2021/07/26 12:46:03;;;;;;;7.93;6.18;;;;;;;;;;6302192;22;20231;-35
2021/07/26 12:48:32;;;;;;;10.38;5.10;;;;;;;;;;6301758;22;19999;-35
2021/07/26 12:50:58;;;;;;;17.13;6.95;;;;;;;;;;6301396;22;20000;-35
2021/07/26 12:53:25;;;;;;;13.00;4.90;;;;;;;;;;6301399;22;20003;-36
2021/07/26 12:55:54;;;;;;;11.15;5.20;;;;;;;;;;6301890;22;20027;-35
2021/07/26 12:58:19;;;;;;;14.32;5.05;;;;;;;;;;6301229;22;20056;-35
2021/07/26 13:00:48;;;;;;;20.67;12.15;;;;;;;;;;6301682;22;19995;-34
2021/07/26 13:03:18;;;;;;;10.43;9.38;;;;;;;;;;6298983;22;20254;-34
2021/07/26 13:05:47;;;;;;;16.63;9.53;;;;;;;;;;6301538;22;20440;-34
2021/07/26 13:08:18;;;;;;;11.23;6.78;;;;;;;;;;6302066;22;20003;-33
2021/07/26 13:10:44;;;;;;;16.38;5.60;;;;;;;;;;6300023;22;20011;-34
2021/07/26 13:13:14;;;;;;;5.75;4.68;;;;;;;;;;6301981;22;20610;-33
2021/07/26 13:15:42;;;;;;;10.45;7.78;;;;;;;;;;6301486;22;19999;-33
2021/07/26 13:18:08;;;;;;;22.98;13.85;;;;;;;;;;6301131;22;20086;-34
2021/07/26 13:20:34;;;;;;;19.17;6.45;;;;;;;;;;6301446;22;20494;-34
2021/07/26 13:23:02;;;;;;;7.35;3.85;;;;;;;;;;6300424;22;19995;-35
2021/07/26 13:25:31;;;;;;;10.80;4.68;;;;;;;;;;6301778;22;19999;-35
2021/07/26 13:27:57;;;;;;;9.73;4.50;;;;;;;;;;6301736;22;20003;-35
2021/07/26 13:30:22;;;;;;;14.20;4.35;;;;;;;;;;6301500;22;20389;-37
2021/07/26 13:32:48;;;;;;;10.35;4.45;;;;;;;;;;6300909;22;20007;-35
2021/07/26 13:35:13;;;;;;;12.77;5.53;;;;;;;;;;6300578;22;20472;-34
2021/07/26 13:37:38;;;;;;;4.65;3.20;;;;;;;;;;6300838;22;20340;-34
2021/07/26 13:40:04;;;;;;;14.25;12.77;;;;;;;;;;6301478;22;20336;-35
2021/07/26 13:42:31;;;;;;;11.70;4.03;;;;;;;;;;6301454;22;20022;-34
2021/07/26 13:44:57;;;;;;;5.93;4.50;;;;;;;;;;6300902;22;20005;-34
2021/07/26 13:47:22;;;;;;;9.07;6.00;;;;;;;;;;6301416;22;20003;-34
2021/07/26 13:49:47;;;;;;;9.43;6.03;;;;;;;;;;6301172;22;20364;-34
2021/07/26 13:52:13;;;;;;;10.32;6.65;;;;;;;;;;6301098;22;20011;-41
2021/07/26 13:54:38;;;;;;;10.43;8.65;;;;;;;;;;6301631;22;19996;-33
2021/07/26 13:57:03;;;;;;;8.85;4.57;;;;;;;;;;6301432;22;20405;-33
2021/07/26 13:59:29;;;;;;;10.50;4.45;;;;;;;;;;6301060;22;20336;-33
2021/07/26 14:01:56;;;;;;;6.25;3.60;;;;;;;;;;6300674;22;20006;-33
2021/07/26 14:04:21;;;;;;;9.52;5.32;;;;;;;;;;6299364;22;19999;-34
2021/07/26 14:06:46;;;;;;;7.10;3.17;;;;;;;;;;6301514;22;20007;-34
2021/07/26 14:09:11;;;;;;;11.70;6.63;;;;;;;;;;6301738;22;19995;-33
2021/07/26 14:11:40;;;;;;;6.57;4.80;;;;;;;;;;6301372;22;20003;-34
2021/07/26 14:14:05;;;;;;;13.82;4.45;;;;;;;;;;6301630;22;19995;-33
2021/07/26 14:16:31;;;;;;;7.72;5.03;;;;;;;;;;6301235;22;20429;-33
2021/07/26 14:18:56;;;;;;;6.32;4.32;;;;;;;;;;6300683;22;20460;-34
2021/07/26 14:21:22;;;;;;;10.32;3.55;;;;;;;;;;6300849;22;19995;-33
2021/07/26 14:23:47;;;;;;;6.82;5.47;;;;;;;;;;6301117;22;20022;-33
2021/07/26 14:26:12;;;;;;;9.40;5.85;;;;;;;;;;6300975;22;20542;-33
2021/07/26 14:28:37;;;;;;;9.00;6.28;;;;;;;;;;6301037;22;20083;-34
2021/07/26 14:31:03;;;;;;;14.50;5.40;;;;;;;;;;6300723;22;20018;-33
2021/07/26 14:33:28;;;;;;;8.02;4.50;;;;;;;;;;6300437;22;20000;-34
2021/07/26 14:35:53;;;;;;;18.73;6.90;;;;;;;;;;6300889;22;20003;-34